DLH255 ENBR-BIKF
Flight info
| Callsign | DLH255 |
|---|---|
| Flight time | 2h 14m |
| Altitude | 36000 |
| Route | REKLI1D REKLI DCT VALDI/M077F380 DCT ING DCT NASBU NASBU4K |
| Aircraft | A320/M-VGDW/C |
Departure
| Time | 2026-04-29 16:45 |
|---|---|
| Airport | Bergen Airport, Flesland (ENBR) |
Arrival
| Time | 2026-04-29 18:59 |
|---|---|
| Airport | Keflavik International Airport (BIKF) |
| Time | Latitude | Longitude | Altitude | Speed | Heading |
|---|---|---|---|---|---|
| 2026-04-29 16:09 | 60.28828 | 5.22611 | 150 ft | 0 kts | 35° |
| 2026-04-29 16:36 | 60.28818 | 5.22597 | 150 ft | 4 kts | 34° |
| 2026-04-29 16:36 | 60.28796 | 5.22568 | 149 ft | 4 kts | 29° |
| 2026-04-29 16:37 | 60.28772 | 5.22544 | 149 ft | 4 kts | 22° |
| 2026-04-29 16:37 | 60.28746 | 5.22528 | 149 ft | 4 kts | 3° |
| 2026-04-29 16:37 | 60.28725 | 5.22534 | 149 ft | 4 kts | 297° |
| 2026-04-29 16:37 | 60.28723 | 5.22543 | 149 ft | 0 kts | 274° |
| 2026-04-29 16:40 | 60.28722 | 5.22534 | 149 ft | 4 kts | 259° |
| 2026-04-29 16:40 | 60.28697 | 5.22445 | 149 ft | 8 kts | 244° |
| 2026-04-29 16:41 | 60.28636 | 5.22375 | 148 ft | 12 kts | 173° |
| 2026-04-29 16:41 | 60.28556 | 5.22400 | 148 ft | 12 kts | 171° |
| 2026-04-29 16:41 | 60.28478 | 5.22426 | 147 ft | 11 kts | 170° |
| 2026-04-29 16:41 | 60.28401 | 5.22453 | 146 ft | 12 kts | 170° |
| 2026-04-29 16:42 | 60.28315 | 5.22481 | 145 ft | 13 kts | 171° |
| 2026-04-29 16:42 | 60.28225 | 5.22511 | 145 ft | 13 kts | 171° |
| 2026-04-29 16:42 | 60.28133 | 5.22541 | 144 ft | 17 kts | 171° |
| 2026-04-29 16:42 | 60.28057 | 5.22425 | 143 ft | 15 kts | 262° |
| 2026-04-29 16:43 | 60.28090 | 5.22239 | 141 ft | 15 kts | 341° |
| 2026-04-29 16:43 | 60.28188 | 5.22205 | 143 ft | 8 kts | 351° |
| 2026-04-29 16:43 | 60.28195 | 5.22203 | 143 ft | 0 kts | 351° |
| 2026-04-29 16:44 | 60.28414 | 5.22126 | 147 ft | 62 kts | 349° |
| 2026-04-29 16:44 | 60.29004 | 5.21927 | 151 ft | 111 kts | 350° |
| 2026-04-29 16:45 | 60.29957 | 5.21611 | 265 ft | 157 kts | 350° |
| 2026-04-29 16:45 | 60.31034 | 5.21270 | 787 ft | 165 kts | 349° |
| 2026-04-29 16:45 | 60.32228 | 5.20867 | 1024 ft | 185 kts | 348° |
| 2026-04-29 16:45 | 60.33570 | 5.20407 | 1225 ft | 205 kts | 350° |
| 2026-04-29 16:46 | 60.35046 | 5.19902 | 1591 ft | 219 kts | 349° |
| 2026-04-29 16:46 | 60.36574 | 5.19382 | 2122 ft | 226 kts | 350° |
| 2026-04-29 16:46 | 60.38143 | 5.18850 | 2700 ft | 231 kts | 350° |
| 2026-04-29 16:46 | 60.39742 | 5.18304 | 3265 ft | 234 kts | 350° |
| 2026-04-29 16:47 | 60.41408 | 5.17738 | 3602 ft | 252 kts | 350° |
| 2026-04-29 16:47 | 60.43156 | 5.17146 | 4512 ft | 256 kts | 349° |
| 2026-04-29 16:47 | 60.44930 | 5.16547 | 5480 ft | 261 kts | 349° |
| 2026-04-29 16:47 | 60.46648 | 5.15378 | 5853 ft | 261 kts | 328° |
| 2026-04-29 16:48 | 60.47961 | 5.12875 | 6328 ft | 264 kts | 303° |
| 2026-04-29 16:48 | 60.48692 | 5.09501 | 7467 ft | 254 kts | 290° |
| 2026-04-29 16:48 | 60.49237 | 5.06239 | 8899 ft | 235 kts | 290° |
| 2026-04-29 16:48 | 60.49751 | 5.03136 | 9952 ft | 231 kts | 290° |
| 2026-04-29 16:49 | 60.50256 | 5.00077 | 10774 ft | 233 kts | 290° |
| 2026-04-29 16:49 | 60.50775 | 4.96942 | 11539 ft | 235 kts | 290° |
| 2026-04-29 16:49 | 60.51296 | 4.93780 | 12305 ft | 238 kts | 291° |
| 2026-04-29 16:49 | 60.51822 | 4.90583 | 13082 ft | 240 kts | 291° |
| 2026-04-29 16:50 | 60.52353 | 4.87346 | 13880 ft | 242 kts | 291° |
| 2026-04-29 16:50 | 60.52886 | 4.84079 | 14627 ft | 245 kts | 291° |
| 2026-04-29 16:50 | 60.53424 | 4.80785 | 15304 ft | 247 kts | 291° |
| 2026-04-29 16:50 | 60.53969 | 4.77441 | 15974 ft | 250 kts | 291° |
| 2026-04-29 16:51 | 60.54516 | 4.74067 | 16654 ft | 253 kts | 291° |
| 2026-04-29 16:51 | 60.55069 | 4.70664 | 17332 ft | 255 kts | 291° |
| 2026-04-29 16:51 | 60.55625 | 4.67220 | 18010 ft | 258 kts | 291° |
| 2026-04-29 16:51 | 60.56185 | 4.63740 | 18688 ft | 260 kts | 291° |
| 2026-04-29 16:52 | 60.56750 | 4.60227 | 19223 ft | 263 kts | 291° |
| 2026-04-29 16:52 | 60.57322 | 4.56672 | 19809 ft | 266 kts | 291° |
| 2026-04-29 16:52 | 60.57892 | 4.53129 | 20384 ft | 268 kts | 291° |
| 2026-04-29 16:52 | 60.58481 | 4.49458 | 20953 ft | 271 kts | 290° |
| 2026-04-29 16:53 | 60.59066 | 4.45785 | 21531 ft | 274 kts | 290° |
| 2026-04-29 16:53 | 60.59655 | 4.42075 | 22080 ft | 277 kts | 290° |
| 2026-04-29 16:53 | 60.60243 | 4.38368 | 22643 ft | 280 kts | 290° |
| 2026-04-29 16:53 | 60.60849 | 4.34556 | 23192 ft | 284 kts | 290° |
| 2026-04-29 16:54 | 60.61456 | 4.30715 | 23759 ft | 287 kts | 290° |
| 2026-04-29 16:54 | 60.62070 | 4.26823 | 24250 ft | 291 kts | 290° |
| 2026-04-29 16:54 | 60.62689 | 4.22884 | 24717 ft | 293 kts | 290° |
| 2026-04-29 16:54 | 60.63316 | 4.18902 | 25169 ft | 296 kts | 290° |
| 2026-04-29 16:55 | 60.63947 | 4.14891 | 25632 ft | 299 kts | 290° |
| 2026-04-29 16:55 | 60.64582 | 4.10845 | 26087 ft | 301 kts | 289° |
| 2026-04-29 16:55 | 60.65220 | 4.06759 | 26520 ft | 304 kts | 289° |
| 2026-04-29 16:55 | 60.65861 | 4.02639 | 26964 ft | 306 kts | 289° |
| 2026-04-29 16:56 | 60.66507 | 3.98471 | 27391 ft | 309 kts | 289° |
| 2026-04-29 16:56 | 60.67157 | 3.94275 | 27827 ft | 312 kts | 289° |
| 2026-04-29 16:56 | 60.67813 | 3.90036 | 28245 ft | 314 kts | 289° |
| 2026-04-29 16:56 | 60.68472 | 3.85761 | 28668 ft | 317 kts | 288° |
| 2026-04-29 16:57 | 60.69133 | 3.81457 | 29098 ft | 319 kts | 288° |
| 2026-04-29 16:57 | 60.69800 | 3.77109 | 29498 ft | 322 kts | 288° |
| 2026-04-29 16:57 | 60.70471 | 3.72734 | 29967 ft | 323 kts | 288° |
| 2026-04-29 16:57 | 60.71143 | 3.68339 | 30387 ft | 326 kts | 288° |
| 2026-04-29 16:58 | 60.71820 | 3.63903 | 30751 ft | 328 kts | 288° |
| 2026-04-29 16:58 | 60.72492 | 3.59495 | 31085 ft | 330 kts | 288° |
| 2026-04-29 16:58 | 60.73175 | 3.55001 | 31421 ft | 333 kts | 288° |
| 2026-04-29 16:58 | 60.73862 | 3.50465 | 31755 ft | 335 kts | 288° |
| 2026-04-29 16:59 | 60.74550 | 3.45895 | 32093 ft | 337 kts | 288° |
| 2026-04-29 16:59 | 60.75240 | 3.41303 | 32423 ft | 340 kts | 288° |
| 2026-04-29 16:59 | 60.75938 | 3.36659 | 32711 ft | 343 kts | 287° |
| 2026-04-29 16:59 | 60.76639 | 3.31978 | 33040 ft | 346 kts | 287° |
| 2026-04-29 17:00 | 60.77340 | 3.27256 | 33362 ft | 348 kts | 287° |
| 2026-04-29 17:00 | 60.78044 | 3.22501 | 33660 ft | 350 kts | 287° |
| 2026-04-29 17:00 | 60.78754 | 3.17708 | 33970 ft | 353 kts | 287° |
| 2026-04-29 17:00 | 60.79468 | 3.12887 | 34283 ft | 355 kts | 287° |
| 2026-04-29 17:01 | 60.80185 | 3.08032 | 34568 ft | 357 kts | 286° |
| 2026-04-29 17:01 | 60.80906 | 3.03138 | 34799 ft | 360 kts | 286° |
| 2026-04-29 17:01 | 60.81629 | 2.98210 | 35037 ft | 362 kts | 286° |
| 2026-04-29 17:01 | 60.82350 | 2.93255 | 35275 ft | 364 kts | 286° |
| 2026-04-29 17:02 | 60.83073 | 2.88268 | 35511 ft | 366 kts | 286° |
| 2026-04-29 17:02 | 60.83804 | 2.83244 | 35722 ft | 369 kts | 287° |
| 2026-04-29 17:02 | 60.84539 | 2.78189 | 35935 ft | 371 kts | 287° |
| 2026-04-29 17:02 | 60.85267 | 2.73169 | 36142 ft | 373 kts | 286° |
| 2026-04-29 17:03 | 60.86005 | 2.68045 | 36335 ft | 376 kts | 286° |
| 2026-04-29 17:03 | 60.86747 | 2.62876 | 36459 ft | 380 kts | 286° |
| 2026-04-29 17:03 | 60.88261 | 2.52271 | 36490 ft | 395 kts | 286° |
| 2026-04-29 17:04 | 60.89826 | 2.41240 | 36480 ft | 409 kts | 286° |
| 2026-04-29 17:04 | 60.91437 | 2.29839 | 36476 ft | 419 kts | 285° |
| 2026-04-29 17:05 | 60.93053 | 2.18281 | 36483 ft | 421 kts | 285° |
| 2026-04-29 17:05 | 60.94659 | 2.06702 | 36498 ft | 421 kts | 285° |
| 2026-04-29 17:06 | 60.96257 | 1.95107 | 36494 ft | 421 kts | 285° |
| 2026-04-29 17:06 | 60.97843 | 1.83484 | 36489 ft | 421 kts | 285° |
| 2026-04-29 17:07 | 60.99155 | 1.73836 | 36483 ft | 421 kts | 285° |
| 2026-04-29 17:07 | 61.00990 | 1.60303 | 36486 ft | 421 kts | 285° |
| 2026-04-29 17:08 | 61.02549 | 1.48668 | 36491 ft | 421 kts | 285° |
| 2026-04-29 17:08 | 61.04092 | 1.37023 | 36496 ft | 421 kts | 284° |
| 2026-04-29 17:09 | 61.05627 | 1.25377 | 36486 ft | 420 kts | 284° |
| 2026-04-29 17:09 | 61.07153 | 1.13741 | 36495 ft | 420 kts | 284° |
| 2026-04-29 17:10 | 61.08663 | 1.02105 | 36482 ft | 419 kts | 284° |
| 2026-04-29 17:10 | 61.10162 | 0.90453 | 36476 ft | 419 kts | 284° |
| 2026-04-29 17:11 | 61.11658 | 0.78793 | 36470 ft | 419 kts | 284° |
| 2026-04-29 17:11 | 61.13146 | 0.67131 | 36471 ft | 419 kts | 284° |
| 2026-04-29 17:12 | 61.14615 | 0.55473 | 36470 ft | 418 kts | 283° |
| 2026-04-29 17:12 | 61.15824 | 0.45780 | 36459 ft | 418 kts | 283° |
| 2026-04-29 17:13 | 61.17522 | 0.32141 | 36460 ft | 418 kts | 283° |
| 2026-04-29 17:13 | 61.18963 | 0.20458 | 36457 ft | 418 kts | 283° |
| 2026-04-29 17:14 | 61.20380 | 0.08824 | 36451 ft | 418 kts | 283° |
| 2026-04-29 17:14 | 61.22084 | -0.02718 | 36459 ft | 420 kts | 294° |
| 2026-04-29 17:15 | 61.24640 | -0.13622 | 36454 ft | 420 kts | 294° |
| 2026-04-29 17:15 | 61.27170 | -0.24567 | 36458 ft | 420 kts | 294° |
| 2026-04-29 17:16 | 61.29690 | -0.35528 | 36457 ft | 420 kts | 294° |
| 2026-04-29 17:16 | 61.32208 | -0.46502 | 36452 ft | 420 kts | 294° |
| 2026-04-29 17:17 | 61.34719 | -0.57487 | 36455 ft | 420 kts | 294° |
| 2026-04-29 17:17 | 61.37215 | -0.68478 | 36456 ft | 419 kts | 293° |
| 2026-04-29 17:18 | 61.39685 | -0.79431 | 36454 ft | 419 kts | 293° |
| 2026-04-29 17:18 | 61.42156 | -0.90440 | 36449 ft | 418 kts | 293° |
| 2026-04-29 17:19 | 61.44613 | -1.01461 | 36447 ft | 418 kts | 293° |
| 2026-04-29 17:19 | 61.47061 | -1.12501 | 36437 ft | 418 kts | 293° |
| 2026-04-29 17:20 | 61.49513 | -1.23531 | 36442 ft | 418 kts | 293° |
| 2026-04-29 17:20 | 61.51949 | -1.34588 | 36439 ft | 418 kts | 293° |
| 2026-04-29 17:21 | 61.54373 | -1.45659 | 36436 ft | 418 kts | 292° |
| 2026-04-29 17:21 | 61.56770 | -1.56674 | 36429 ft | 418 kts | 292° |
| 2026-04-29 17:22 | 61.59167 | -1.67780 | 36426 ft | 417 kts | 292° |
| 2026-04-29 17:22 | 61.61567 | -1.78890 | 36425 ft | 417 kts | 292° |
| 2026-04-29 17:23 | 61.63954 | -1.90005 | 36424 ft | 417 kts | 292° |
| 2026-04-29 17:23 | 61.66327 | -2.01134 | 36415 ft | 417 kts | 292° |
| 2026-04-29 17:24 | 61.68691 | -2.12281 | 36407 ft | 417 kts | 292° |
| 2026-04-29 17:24 | 61.70648 | -2.21560 | 36414 ft | 417 kts | 291° |
| 2026-04-29 17:25 | 61.72993 | -2.32737 | 36409 ft | 417 kts | 291° |
| 2026-04-29 17:25 | 61.75325 | -2.43922 | 36406 ft | 416 kts | 291° |
| 2026-04-29 17:26 | 61.77652 | -2.55124 | 36405 ft | 416 kts | 291° |
| 2026-04-29 17:26 | 61.79972 | -2.66343 | 36399 ft | 416 kts | 291° |
| 2026-04-29 17:27 | 61.82276 | -2.77567 | 36392 ft | 416 kts | 291° |
| 2026-04-29 17:27 | 61.84574 | -2.88811 | 36401 ft | 416 kts | 291° |
| 2026-04-29 17:28 | 61.86863 | -3.00067 | 36394 ft | 416 kts | 290° |
| 2026-04-29 17:28 | 61.89136 | -3.11338 | 36408 ft | 416 kts | 290° |
| 2026-04-29 17:29 | 61.91404 | -3.22627 | 36400 ft | 415 kts | 290° |
| 2026-04-29 17:29 | 61.93659 | -3.33896 | 36398 ft | 415 kts | 290° |
| 2026-04-29 17:30 | 61.95890 | -3.45110 | 36390 ft | 414 kts | 290° |
| 2026-04-29 17:30 | 61.98124 | -3.56410 | 36392 ft | 414 kts | 290° |
| 2026-04-29 17:31 | 62.00347 | -3.67712 | 36385 ft | 414 kts | 289° |
| 2026-04-29 17:31 | 62.02557 | -3.79027 | 36376 ft | 414 kts | 289° |
| 2026-04-29 17:32 | 62.04756 | -3.90372 | 36379 ft | 414 kts | 289° |
| 2026-04-29 17:32 | 62.06946 | -4.01706 | 36374 ft | 414 kts | 289° |
| 2026-04-29 17:33 | 62.09128 | -4.13074 | 36363 ft | 413 kts | 289° |
| 2026-04-29 17:33 | 62.11302 | -4.24438 | 36354 ft | 413 kts | 289° |
| 2026-04-29 17:34 | 62.13469 | -4.35828 | 36362 ft | 414 kts | 289° |
| 2026-04-29 17:34 | 62.15604 | -4.47159 | 36387 ft | 413 kts | 288° |
| 2026-04-29 17:35 | 62.18809 | -4.64282 | 36369 ft | 411 kts | 288° |
| 2026-04-29 17:36 | 62.20930 | -4.75655 | 36359 ft | 411 kts | 288° |
| 2026-04-29 17:36 | 62.23041 | -4.87037 | 36356 ft | 410 kts | 288° |
| 2026-04-29 17:37 | 62.25133 | -4.98402 | 36350 ft | 409 kts | 288° |
| 2026-04-29 17:37 | 62.27201 | -5.09711 | 36356 ft | 409 kts | 287° |
| 2026-04-29 17:38 | 62.29267 | -5.21082 | 36347 ft | 409 kts | 287° |
| 2026-04-29 17:38 | 62.31329 | -5.32455 | 36328 ft | 408 kts | 287° |
| 2026-04-29 17:39 | 62.33370 | -5.43848 | 36328 ft | 408 kts | 287° |
| 2026-04-29 17:39 | 62.35398 | -5.55245 | 36318 ft | 408 kts | 287° |
| 2026-04-29 17:40 | 62.37426 | -5.66650 | 36314 ft | 408 kts | 287° |
| 2026-04-29 17:40 | 62.39449 | -5.78068 | 36314 ft | 408 kts | 287° |
| 2026-04-29 17:41 | 62.41444 | -5.89435 | 36340 ft | 407 kts | 286° |
| 2026-04-29 17:41 | 62.43434 | -6.00839 | 36332 ft | 405 kts | 285° |
| 2026-04-29 17:42 | 62.45412 | -6.12228 | 36324 ft | 405 kts | 285° |
| 2026-04-29 17:42 | 62.47377 | -6.23622 | 36313 ft | 404 kts | 285° |
| 2026-04-29 17:43 | 62.49327 | -6.35022 | 36311 ft | 403 kts | 285° |
| 2026-04-29 17:43 | 62.51265 | -6.46402 | 36299 ft | 403 kts | 285° |
| 2026-04-29 17:44 | 62.53191 | -6.57793 | 36298 ft | 403 kts | 285° |
| 2026-04-29 17:44 | 62.55108 | -6.69198 | 36292 ft | 403 kts | 285° |
| 2026-04-29 17:45 | 62.57004 | -6.80553 | 36282 ft | 404 kts | 285° |
| 2026-04-29 17:45 | 62.58911 | -6.92035 | 36282 ft | 404 kts | 285° |
| 2026-04-29 17:46 | 62.60814 | -7.03526 | 36276 ft | 405 kts | 285° |
| 2026-04-29 17:46 | 62.62705 | -7.15057 | 36273 ft | 405 kts | 284° |
| 2026-04-29 17:47 | 62.64574 | -7.26593 | 36302 ft | 405 kts | 284° |
| 2026-04-29 17:47 | 62.66434 | -7.38065 | 36304 ft | 404 kts | 284° |
| 2026-04-29 17:48 | 62.68297 | -7.49591 | 36314 ft | 403 kts | 283° |
| 2026-04-29 17:48 | 62.70148 | -7.61109 | 36290 ft | 402 kts | 283° |
| 2026-04-29 17:49 | 62.71983 | -7.72639 | 36285 ft | 402 kts | 283° |
| 2026-04-29 17:49 | 62.73804 | -7.84165 | 36281 ft | 402 kts | 283° |
| 2026-04-29 17:50 | 62.75603 | -7.95694 | 36279 ft | 401 kts | 283° |
| 2026-04-29 17:50 | 62.77389 | -8.07156 | 36264 ft | 401 kts | 283° |
| 2026-04-29 17:51 | 62.79179 | -8.18697 | 36255 ft | 401 kts | 283° |
| 2026-04-29 17:51 | 62.80959 | -8.30241 | 36254 ft | 400 kts | 283° |
| 2026-04-29 17:52 | 62.82723 | -8.41802 | 36250 ft | 400 kts | 283° |
| 2026-04-29 17:52 | 62.84484 | -8.53366 | 36245 ft | 400 kts | 283° |
| 2026-04-29 17:53 | 62.86219 | -8.64858 | 36239 ft | 400 kts | 282° |
| 2026-04-29 17:53 | 62.87953 | -8.76427 | 36254 ft | 399 kts | 282° |
| 2026-04-29 17:54 | 62.89663 | -8.87974 | 36240 ft | 397 kts | 282° |
| 2026-04-29 17:54 | 62.91367 | -8.99495 | 36237 ft | 397 kts | 282° |
| 2026-04-29 17:55 | 62.93069 | -9.11004 | 36251 ft | 396 kts | 281° |
| 2026-04-29 17:55 | 62.94749 | -9.22496 | 36243 ft | 395 kts | 281° |
| 2026-04-29 17:56 | 62.96407 | -9.33979 | 36215 ft | 394 kts | 281° |
| 2026-04-29 17:56 | 62.98060 | -9.45472 | 36210 ft | 394 kts | 281° |
| 2026-04-29 17:57 | 62.99695 | -9.56887 | 36207 ft | 394 kts | 281° |
| 2026-04-29 17:57 | 63.01329 | -9.68386 | 36202 ft | 394 kts | 281° |
| 2026-04-29 17:58 | 63.02951 | -9.79902 | 36201 ft | 394 kts | 281° |
| 2026-04-29 17:58 | 63.04574 | -9.91421 | 36208 ft | 393 kts | 280° |
| 2026-04-29 17:59 | 63.06177 | -10.02939 | 36196 ft | 393 kts | 280° |
| 2026-04-29 17:59 | 63.07771 | -10.14467 | 36214 ft | 392 kts | 279° |
| 2026-04-29 18:00 | 63.09345 | -10.25894 | 36170 ft | 388 kts | 279° |
| 2026-04-29 18:00 | 63.10898 | -10.37296 | 36171 ft | 388 kts | 279° |
| 2026-04-29 18:01 | 63.12440 | -10.48713 | 36152 ft | 388 kts | 279° |
| 2026-04-29 18:01 | 63.13963 | -10.60087 | 36157 ft | 388 kts | 279° |
| 2026-04-29 18:02 | 63.15486 | -10.71537 | 36175 ft | 388 kts | 278° |
| 2026-04-29 18:02 | 63.17009 | -10.82983 | 36165 ft | 388 kts | 278° |
| 2026-04-29 18:03 | 63.18528 | -10.94459 | 36166 ft | 388 kts | 278° |
| 2026-04-29 18:03 | 63.20029 | -11.05951 | 36140 ft | 388 kts | 278° |
| 2026-04-29 18:04 | 63.21512 | -11.17434 | 36137 ft | 387 kts | 278° |
| 2026-04-29 18:04 | 63.22979 | -11.28877 | 36129 ft | 387 kts | 278° |
| 2026-04-29 18:05 | 63.24447 | -11.40368 | 36127 ft | 387 kts | 278° |
| 2026-04-29 18:05 | 63.25907 | -11.51891 | 36159 ft | 387 kts | 277° |
| 2026-04-29 18:06 | 63.27358 | -11.63399 | 36136 ft | 386 kts | 277° |
| 2026-04-29 18:06 | 63.28790 | -11.74790 | 36101 ft | 381 kts | 276° |
| 2026-04-29 18:07 | 63.30199 | -11.86162 | 36098 ft | 381 kts | 276° |
| 2026-04-29 18:07 | 63.31588 | -11.97475 | 36092 ft | 382 kts | 276° |
| 2026-04-29 18:08 | 63.32982 | -12.08879 | 36091 ft | 382 kts | 276° |
| 2026-04-29 18:08 | 63.34366 | -12.20300 | 36076 ft | 382 kts | 276° |
| 2026-04-29 18:09 | 63.35744 | -12.31733 | 36112 ft | 383 kts | 276° |
| 2026-04-29 18:09 | 63.37122 | -12.43212 | 36109 ft | 383 kts | 276° |
| 2026-04-29 18:10 | 63.38488 | -12.54681 | 36104 ft | 382 kts | 275° |
| 2026-04-29 18:10 | 63.39833 | -12.66070 | 36085 ft | 381 kts | 275° |
| 2026-04-29 18:11 | 63.41162 | -12.77518 | 36075 ft | 381 kts | 275° |
| 2026-04-29 18:11 | 63.42483 | -12.88970 | 36067 ft | 381 kts | 275° |
| 2026-04-29 18:12 | 63.43806 | -13.00442 | 36068 ft | 381 kts | 275° |
| 2026-04-29 18:12 | 63.45113 | -13.11910 | 36161 ft | 381 kts | 274° |
| 2026-04-29 18:13 | 63.46417 | -13.23343 | 36066 ft | 377 kts | 274° |
| 2026-04-29 18:13 | 63.47695 | -13.34700 | 36056 ft | 377 kts | 274° |
| 2026-04-29 18:14 | 63.48945 | -13.46009 | 36045 ft | 377 kts | 274° |
| 2026-04-29 18:14 | 63.50206 | -13.57479 | 36044 ft | 377 kts | 274° |
| 2026-04-29 18:15 | 63.51450 | -13.68823 | 36047 ft | 378 kts | 274° |
| 2026-04-29 18:15 | 63.52696 | -13.80273 | 36049 ft | 378 kts | 273° |
| 2026-04-29 18:16 | 63.53938 | -13.91726 | 36053 ft | 378 kts | 273° |
| 2026-04-29 18:16 | 63.54960 | -14.01252 | 36096 ft | 378 kts | 272° |
| 2026-04-29 18:17 | 63.56173 | -14.12743 | 36073 ft | 378 kts | 272° |
| 2026-04-29 18:17 | 63.57382 | -14.24235 | 36064 ft | 378 kts | 272° |
| 2026-04-29 18:18 | 63.58590 | -14.35750 | 36061 ft | 378 kts | 272° |
| 2026-04-29 18:18 | 63.59782 | -14.47262 | 36055 ft | 378 kts | 272° |
| 2026-04-29 18:19 | 63.60955 | -14.58763 | 36057 ft | 378 kts | 272° |
| 2026-04-29 18:19 | 63.62115 | -14.70203 | 36074 ft | 378 kts | 272° |
| 2026-04-29 18:20 | 63.63275 | -14.81715 | 36111 ft | 378 kts | 272° |
| 2026-04-29 18:20 | 63.64434 | -14.93247 | 36057 ft | 378 kts | 271° |
| 2026-04-29 18:21 | 63.65577 | -15.04774 | 36047 ft | 377 kts | 271° |
| 2026-04-29 18:21 | 63.66714 | -15.16321 | 36043 ft | 377 kts | 271° |
| 2026-04-29 18:22 | 63.67845 | -15.27866 | 36026 ft | 377 kts | 271° |
| 2026-04-29 18:22 | 63.68953 | -15.39427 | 36025 ft | 377 kts | 271° |
| 2026-04-29 18:23 | 63.70051 | -15.50985 | 36030 ft | 377 kts | 271° |
| 2026-04-29 18:23 | 63.71140 | -15.62476 | 36021 ft | 377 kts | 271° |
| 2026-04-29 18:24 | 63.72236 | -15.74117 | 36067 ft | 377 kts | 270° |
| 2026-04-29 18:24 | 63.73306 | -15.85629 | 36049 ft | 377 kts | 270° |
| 2026-04-29 18:25 | 63.74377 | -15.97213 | 36032 ft | 377 kts | 270° |
| 2026-04-29 18:25 | 63.75436 | -16.08799 | 36026 ft | 377 kts | 270° |
| 2026-04-29 18:26 | 63.76482 | -16.20413 | 36023 ft | 377 kts | 270° |
| 2026-04-29 18:26 | 63.77515 | -16.32029 | 36022 ft | 377 kts | 270° |
| 2026-04-29 18:27 | 63.78541 | -16.43580 | 36028 ft | 377 kts | 270° |
| 2026-04-29 18:27 | 63.79558 | -16.55192 | 36022 ft | 376 kts | 270° |
| 2026-04-29 18:28 | 63.80513 | -16.66814 | 36025 ft | 373 kts | 268° |
| 2026-04-29 18:28 | 63.81159 | -16.78419 | 36030 ft | 370 kts | 265° |
| 2026-04-29 18:29 | 63.81680 | -16.90004 | 36025 ft | 370 kts | 265° |
| 2026-04-29 18:29 | 63.82209 | -17.01601 | 36028 ft | 370 kts | 265° |
| 2026-04-29 18:30 | 63.82769 | -17.13205 | 36033 ft | 371 kts | 265° |
| 2026-04-29 18:30 | 63.83334 | -17.24811 | 36035 ft | 371 kts | 265° |
| 2026-04-29 18:31 | 63.83891 | -17.36425 | 36035 ft | 371 kts | 265° |
| 2026-04-29 18:31 | 63.84430 | -17.48054 | 36064 ft | 371 kts | 265° |
| 2026-04-29 18:32 | 63.84954 | -17.59683 | 36055 ft | 370 kts | 265° |
| 2026-04-29 18:32 | 63.85725 | -17.77107 | 36051 ft | 370 kts | 265° |
| 2026-04-29 18:33 | 63.86230 | -17.88722 | 36043 ft | 370 kts | 265° |
| 2026-04-29 18:33 | 63.86717 | -18.00337 | 36047 ft | 370 kts | 264° |
| 2026-04-29 18:34 | 63.87121 | -18.09971 | 36028 ft | 368 kts | 264° |
| 2026-04-29 18:34 | 63.87679 | -18.23416 | 36040 ft | 368 kts | 264° |
| 2026-04-29 18:35 | 63.88146 | -18.34994 | 36017 ft | 369 kts | 264° |
| 2026-04-29 18:35 | 63.88596 | -18.46588 | 36003 ft | 369 kts | 264° |
| 2026-04-29 18:36 | 63.89040 | -18.58213 | 36001 ft | 369 kts | 264° |
| 2026-04-29 18:36 | 63.89479 | -18.69828 | 35998 ft | 369 kts | 264° |
| 2026-04-29 18:37 | 63.89910 | -18.81447 | 35990 ft | 369 kts | 264° |
| 2026-04-29 18:37 | 63.90326 | -18.93075 | 35977 ft | 370 kts | 264° |
| 2026-04-29 18:38 | 63.90733 | -19.04784 | 35973 ft | 373 kts | 263° |
| 2026-04-29 18:38 | 63.91136 | -19.16568 | 35975 ft | 376 kts | 264° |
| 2026-04-29 18:39 | 63.91537 | -19.28480 | 35974 ft | 380 kts | 264° |
| 2026-04-29 18:39 | 63.91930 | -19.40481 | 35967 ft | 382 kts | 264° |
| 2026-04-29 18:40 | 63.92320 | -19.52541 | 35969 ft | 383 kts | 264° |
| 2026-04-29 18:40 | 63.92686 | -19.64539 | 35974 ft | 384 kts | 264° |
| 2026-04-29 18:41 | 63.93413 | -19.88763 | 36038 ft | 384 kts | 264° |
| 2026-04-29 18:42 | 63.93760 | -20.00957 | 35999 ft | 388 kts | 265° |
| 2026-04-29 18:42 | 63.94099 | -20.13247 | 35982 ft | 390 kts | 264° |
| 2026-04-29 18:43 | 63.94421 | -20.25573 | 35978 ft | 391 kts | 264° |
| 2026-04-29 18:43 | 63.94746 | -20.37911 | 35969 ft | 391 kts | 264° |
| 2026-04-29 18:44 | 63.95077 | -20.50276 | 35968 ft | 391 kts | 265° |
| 2026-04-29 18:44 | 63.95406 | -20.62562 | 35906 ft | 390 kts | 264° |
| 2026-04-29 18:45 | 63.95566 | -20.68751 | 34491 ft | 395 kts | 263° |
| 2026-04-29 18:45 | 63.95718 | -20.75050 | 32790 ft | 401 kts | 262° |
| 2026-04-29 18:45 | 63.95870 | -20.81408 | 31170 ft | 402 kts | 262° |
| 2026-04-29 18:45 | 63.96023 | -20.87778 | 29381 ft | 403 kts | 261° |
| 2026-04-29 18:46 | 63.96173 | -20.94145 | 27411 ft | 403 kts | 261° |
| 2026-04-29 18:46 | 63.96322 | -21.00498 | 25553 ft | 401 kts | 262° |
| 2026-04-29 18:46 | 63.96468 | -21.06809 | 23880 ft | 398 kts | 262° |
| 2026-04-29 18:46 | 63.96617 | -21.13021 | 22282 ft | 388 kts | 262° |
| 2026-04-29 18:47 | 63.96762 | -21.19107 | 20675 ft | 381 kts | 263° |
| 2026-04-29 18:47 | 63.96898 | -21.25074 | 19155 ft | 375 kts | 263° |
| 2026-04-29 18:47 | 63.97022 | -21.30969 | 17659 ft | 370 kts | 264° |
| 2026-04-29 18:47 | 63.97137 | -21.36777 | 16117 ft | 365 kts | 264° |
| 2026-04-29 18:48 | 63.97245 | -21.42450 | 14694 ft | 360 kts | 265° |
| 2026-04-29 18:48 | 63.97578 | -21.48100 | 13259 ft | 366 kts | 279° |
| 2026-04-29 18:48 | 63.98563 | -21.53475 | 11762 ft | 368 kts | 287° |
| 2026-04-29 18:48 | 63.99624 | -21.58742 | 10325 ft | 363 kts | 288° |
| 2026-04-29 18:49 | 64.00680 | -21.63919 | 8898 ft | 357 kts | 289° |
| 2026-04-29 18:49 | 64.01723 | -21.69011 | 7464 ft | 351 kts | 289° |
| 2026-04-29 18:49 | 64.02745 | -21.74025 | 6103 ft | 345 kts | 290° |
| 2026-04-29 18:49 | 64.03724 | -21.78844 | 5382 ft | 322 kts | 289° |
| 2026-04-29 18:50 | 64.04624 | -21.83266 | 5110 ft | 292 kts | 289° |
| 2026-04-29 18:50 | 64.05434 | -21.87257 | 4939 ft | 264 kts | 288° |
| 2026-04-29 18:50 | 64.06178 | -21.90962 | 4414 ft | 252 kts | 287° |
| 2026-04-29 18:50 | 64.06894 | -21.94586 | 3740 ft | 249 kts | 287° |
| 2026-04-29 18:51 | 64.07597 | -21.98168 | 3169 ft | 245 kts | 287° |
| 2026-04-29 18:51 | 64.08295 | -22.01730 | 3028 ft | 246 kts | 287° |
| 2026-04-29 18:51 | 64.08995 | -22.05316 | 3033 ft | 247 kts | 287° |
| 2026-04-29 18:51 | 64.09647 | -22.08887 | 3017 ft | 245 kts | 283° |
| 2026-04-29 18:52 | 64.10275 | -22.12540 | 3031 ft | 248 kts | 286° |
| 2026-04-29 18:52 | 64.10990 | -22.16139 | 3034 ft | 248 kts | 288° |
| 2026-04-29 18:52 | 64.11724 | -22.19711 | 3035 ft | 248 kts | 288° |
| 2026-04-29 18:52 | 64.12459 | -22.23287 | 3035 ft | 248 kts | 288° |
| 2026-04-29 18:53 | 64.13183 | -22.26861 | 3034 ft | 247 kts | 287° |
| 2026-04-29 18:53 | 64.13897 | -22.30429 | 3034 ft | 246 kts | 287° |
| 2026-04-29 18:53 | 64.14578 | -22.33825 | 3028 ft | 222 kts | 286° |
| 2026-04-29 18:53 | 64.14980 | -22.36934 | 3027 ft | 190 kts | 265° |
| 2026-04-29 18:54 | 64.14833 | -22.39812 | 3030 ft | 178 kts | 245° |
| 2026-04-29 18:54 | 64.14340 | -22.42385 | 2963 ft | 175 kts | 240° |
| 2026-04-29 18:54 | 64.13834 | -22.44920 | 2641 ft | 176 kts | 241° |
| 2026-04-29 18:54 | 64.13338 | -22.47412 | 2536 ft | 174 kts | 241° |
| 2026-04-29 18:55 | 64.12830 | -22.49953 | 2533 ft | 176 kts | 241° |
| 2026-04-29 18:55 | 64.12320 | -22.52505 | 2531 ft | 176 kts | 241° |
| 2026-04-29 18:55 | 64.11810 | -22.55056 | 2530 ft | 176 kts | 240° |
| 2026-04-29 18:55 | 64.11297 | -22.57613 | 2531 ft | 176 kts | 240° |
| 2026-04-29 18:56 | 64.10567 | -22.59769 | 2530 ft | 172 kts | 213° |
| 2026-04-29 18:56 | 64.09425 | -22.60544 | 2467 ft | 179 kts | 185° |
| 2026-04-29 18:56 | 64.08178 | -22.60524 | 2097 ft | 177 kts | 185° |
| 2026-04-29 18:56 | 64.06964 | -22.60529 | 1822 ft | 173 kts | 186° |
| 2026-04-29 18:57 | 64.05766 | -22.60533 | 1584 ft | 170 kts | 186° |
| 2026-04-29 18:57 | 64.04645 | -22.60531 | 1332 ft | 154 kts | 186° |
| 2026-04-29 18:57 | 64.03641 | -22.60528 | 1129 ft | 136 kts | 187° |
| 2026-04-29 18:57 | 64.02763 | -22.60527 | 941 ft | 117 kts | 187° |
| 2026-04-29 18:58 | 64.01984 | -22.60530 | 773 ft | 110 kts | 187° |
| 2026-04-29 18:58 | 64.01230 | -22.60534 | 633 ft | 107 kts | 187° |
| 2026-04-29 18:58 | 64.00501 | -22.60517 | 456 ft | 104 kts | 188° |
| 2026-04-29 18:58 | 63.99776 | -22.60517 | 328 ft | 103 kts | 189° |
| 2026-04-29 18:59 | 63.99057 | -22.60534 | 175 ft | 104 kts | 186° |
| 2026-04-29 18:59 | 63.98419 | -22.60547 | 154 ft | 77 kts | 181° |
| 2026-04-29 18:59 | 63.98007 | -22.60559 | 149 ft | 44 kts | 180° |
| 2026-04-29 18:59 | 63.97748 | -22.60561 | 148 ft | 33 kts | 181° |
| 2026-04-29 19:00 | 63.97534 | -22.60550 | 148 ft | 30 kts | 178° |
| 2026-04-29 19:00 | 63.97437 | -22.60722 | 146 ft | 13 kts | 285° |
| 2026-04-29 19:00 | 63.97442 | -22.60783 | 146 ft | 0 kts | 282° |
| 2026-04-29 19:01 | 63.97461 | -22.60892 | 146 ft | 16 kts | 303° |
| 2026-04-29 19:01 | 63.97581 | -22.60943 | 146 ft | 20 kts | 360° |
| 2026-04-29 19:02 | 63.97715 | -22.60945 | 147 ft | 18 kts | 0° |
| 2026-04-29 19:02 | 63.97798 | -22.60945 | 148 ft | 17 kts | 360° |
| 2026-04-29 19:02 | 63.97990 | -22.60950 | 149 ft | 23 kts | 359° |
| 2026-04-29 19:02 | 63.98142 | -22.60950 | 150 ft | 21 kts | 1° |
| 2026-04-29 19:03 | 63.98334 | -22.60939 | 151 ft | 36 kts | 1° |
| 2026-04-29 19:03 | 63.98526 | -22.60935 | 153 ft | 45 kts | 360° |
| 2026-04-29 19:03 | 63.98744 | -22.60945 | 158 ft | 19 kts | 358° |
| 2026-04-29 19:03 | 63.98891 | -22.60945 | 161 ft | 29 kts | 0° |
| 2026-04-29 19:04 | 63.99089 | -22.60945 | 166 ft | 25 kts | 1° |
| 2026-04-29 19:04 | 63.99169 | -22.61040 | 167 ft | 20 kts | 287° |
| 2026-04-29 19:04 | 63.99170 | -22.61367 | 166 ft | 23 kts | 270° |
| 2026-04-29 19:04 | 63.99169 | -22.61756 | 164 ft | 25 kts | 273° |
| 2026-04-29 19:05 | 63.99168 | -22.62159 | 163 ft | 24 kts | 268° |
| 2026-04-29 19:05 | 63.99187 | -22.62436 | 163 ft | 14 kts | 323° |
| 2026-04-29 19:05 | 63.99276 | -22.62449 | 164 ft | 10 kts | 4° |
| 2026-04-29 19:05 | 63.99289 | -22.62447 | 164 ft | 0 kts | 3° |